Time;durP1;ratioP1;P1;durP2;ratioP2;P2;SDS_P1;SDS_P2;PMS_P1;PMS_P2;Temp;Humidity;BMP_temperature;BMP_pressure;BME280_temperature;BME280_humidity;BME280_pressure;Samples;Min_cycle;Max_cycle;Signal;HPM_P1;HPM_P2
2021/07/15 00:02:24;;;;;;;8.67;5.90;;;;;;;;;;5097061;28;20222;-64
2021/07/15 00:04:54;;;;;;;8.00;5.87;;;;;;;;;;5097328;28;20237;-65
2021/07/15 00:07:22;;;;;;;11.60;6.47;;;;;;;;;;5097116;28;20216;-65
2021/07/15 00:09:50;;;;;;;10.00;5.93;;;;;;;;;;5097118;28;20205;-64
2021/07/15 00:12:18;;;;;;;9.57;6.70;;;;;;;;;;5097020;28;20308;-65
2021/07/15 00:14:46;;;;;;;10.80;6.27;;;;;;;;;;5099039;28;20688;-65
2021/07/15 00:17:14;;;;;;;9.13;6.70;;;;;;;;;;5101375;28;20218;-65
2021/07/15 00:19:42;;;;;;;12.23;6.90;;;;;;;;;;5101500;28;20224;-65
2021/07/15 00:22:11;;;;;;;10.00;6.77;;;;;;;;;;5101270;28;20229;-65
2021/07/15 00:24:39;;;;;;;11.60;6.57;;;;;;;;;;5101658;28;20205;-66
2021/07/15 00:27:07;;;;;;;9.20;6.67;;;;;;;;;;5101346;28;20206;-66
2021/07/15 00:29:36;;;;;;;11.53;7.30;;;;;;;;;;5101222;28;20217;-66
2021/07/15 00:32:04;;;;;;;10.27;7.17;;;;;;;;;;5100559;28;20588;-66
2021/07/15 00:34:32;;;;;;;11.33;7.37;;;;;;;;;;5101244;28;20205;-66
2021/07/15 00:37:00;;;;;;;8.70;6.43;;;;;;;;;;5101041;28;20239;-66
2021/07/15 00:39:29;;;;;;;13.23;6.67;;;;;;;;;;5100760;28;20220;-66
2021/07/15 00:41:57;;;;;;;7.13;5.97;;;;;;;;;;5100823;28;20217;-66
2021/07/15 00:44:25;;;;;;;9.40;6.87;;;;;;;;;;5101081;28;20205;-66
2021/07/15 00:46:53;;;;;;;8.73;5.87;;;;;;;;;;5100538;28;20209;-66
2021/07/15 00:49:21;;;;;;;11.27;6.73;;;;;;;;;;5101334;28;20212;-65
2021/07/15 00:51:49;;;;;;;14.70;6.83;;;;;;;;;;5101076;28;20229;-65
2021/07/15 00:54:18;;;;;;;8.33;6.73;;;;;;;;;;5101180;28;20209;-65
2021/07/15 00:56:47;;;;;;;10.97;8.27;;;;;;;;;;5087801;28;20216;-65
2021/07/15 00:59:20;;;;;;;11.20;7.77;;;;;;;;;;5101016;28;20205;-65
2021/07/15 01:01:48;;;;;;;10.13;7.67;;;;;;;;;;5100699;28;20225;-65
2021/07/15 01:04:17;;;;;;;13.10;7.77;;;;;;;;;;5100884;28;20216;-65
2021/07/15 01:06:45;;;;;;;7.13;6.13;;;;;;;;;;5100948;28;20573;-65
2021/07/15 01:09:13;;;;;;;12.90;8.37;;;;;;;;;;5100706;28;20227;-66
2021/07/15 01:11:44;;;;;;;13.97;9.07;;;;;;;;;;5100840;28;20685;-66
2021/07/15 01:14:16;;;;;;;17.57;9.37;;;;;;;;;;5100596;28;20297;-66
2021/07/15 01:16:47;;;;;;;17.50;10.23;;;;;;;;;;5100744;28;20288;-66
2021/07/15 01:19:36;;;;;;;15.33;9.03;;;;;;;;;;5100273;28;20209;-66
2021/07/15 01:22:16;;;;;;;16.93;10.03;;;;;;;;;;5099847;28;20251;-65
2021/07/15 01:24:58;;;;;;;12.57;8.73;;;;;;;;;;5099617;28;20620;-65
2021/07/15 01:27:44;;;;;;;7.13;6.40;;;;;;;;;;5097085;28;20233;-65
2021/07/15 01:30:14;;;;;;;8.20;5.97;;;;;;;;;;5099464;28;20644;-65
2021/07/15 01:32:52;;;;;;;5.80;5.03;;;;;;;;;;5100127;28;20229;-65
2021/07/15 01:35:22;;;;;;;6.90;6.20;;;;;;;;;;5099966;28;20201;-65
2021/07/15 01:37:51;;;;;;;4.60;4.17;;;;;;;;;;5100025;28;20244;-65
2021/07/15 01:40:21;;;;;;;4.47;3.90;;;;;;;;;;5100267;28;20208;-65
2021/07/15 01:42:52;;;;;;;4.10;3.70;;;;;;;;;;5100232;28;20257;-65
2021/07/15 01:45:21;;;;;;;6.87;3.90;;;;;;;;;;5099719;28;20284;-66
2021/07/15 01:47:49;;;;;;;5.00;3.87;;;;;;;;;;5099856;28;20304;-66
2021/07/15 01:50:17;;;;;;;3.63;3.33;;;;;;;;;;5099945;28;20308;-65
2021/07/15 01:52:45;;;;;;;4.70;3.17;;;;;;;;;;5099874;28;20684;-65
2021/07/15 01:55:14;;;;;;;3.67;3.17;;;;;;;;;;5099952;28;20205;-65
2021/07/15 01:57:42;;;;;;;3.43;3.13;;;;;;;;;;5099959;28;20268;-65
2021/07/15 02:00:11;;;;;;;3.50;3.20;;;;;;;;;;5099662;28;20725;-65
2021/07/15 02:02:41;;;;;;;3.87;2.90;;;;;;;;;;5099948;28;20243;-65
2021/07/15 02:05:10;;;;;;;3.40;3.10;;;;;;;;;;5099599;28;20546;-65
2021/07/15 02:07:40;;;;;;;4.87;3.37;;;;;;;;;;5099805;28;20660;-66
2021/07/15 02:10:10;;;;;;;3.33;3.10;;;;;;;;;;5099398;28;20651;-65
2021/07/15 02:12:38;;;;;;;3.50;3.20;;;;;;;;;;5099086;28;20236;-65
2021/07/15 02:15:07;;;;;;;3.70;3.40;;;;;;;;;;5099379;28;20208;-65
2021/07/15 02:17:35;;;;;;;3.73;3.20;;;;;;;;;;5099452;28;20215;-65
2021/07/15 02:20:06;;;;;;;6.30;3.70;;;;;;;;;;5099397;28;20209;-65
2021/07/15 02:22:35;;;;;;;4.50;3.30;;;;;;;;;;5099107;28;20237;-65
2021/07/15 02:25:04;;;;;;;5.93;4.17;;;;;;;;;;5098998;28;20669;-65
2021/07/15 02:27:32;;;;;;;4.97;3.90;;;;;;;;;;5099406;28;20209;-65
2021/07/15 02:30:00;;;;;;;6.67;3.90;;;;;;;;;;5098676;28;20658;-65
2021/07/15 02:32:41;;;;;;;6.57;4.30;;;;;;;;;;5099077;28;20229;-65
2021/07/15 02:35:13;;;;;;;6.87;4.47;;;;;;;;;;5099144;28;20201;-63
2021/07/15 02:37:42;;;;;;;4.47;4.00;;;;;;;;;;5098101;28;20658;-64
2021/07/15 02:40:12;;;;;;;6.80;4.50;;;;;;;;;;5098945;28;20216;-65
2021/07/15 02:42:41;;;;;;;5.67;4.60;;;;;;;;;;5098971;28;20218;-65
2021/07/15 02:45:09;;;;;;;4.47;4.07;;;;;;;;;;5098680;28;20245;-65
2021/07/15 02:47:40;;;;;;;4.67;3.87;;;;;;;;;;5098731;28;20209;-65
2021/07/15 02:50:08;;;;;;;5.80;3.83;;;;;;;;;;5098649;28;20696;-65
2021/07/15 02:52:38;;;;;;;6.63;4.80;;;;;;;;;;5098742;28;20769;-65
2021/07/15 02:55:06;;;;;;;10.03;5.70;;;;;;;;;;5098464;28;20213;-65
2021/07/15 02:57:37;;;;;;;8.47;6.07;;;;;;;;;;5098751;28;20211;-65
2021/07/15 03:00:06;;;;;;;13.63;10.07;;;;;;;;;;5098216;28;20631;-65
2021/07/15 03:02:38;;;;;;;13.43;11.47;;;;;;;;;;5098228;28;20229;-65
2021/07/15 03:05:08;;;;;;;13.27;9.93;;;;;;;;;;5098680;28;20288;-65
2021/07/15 03:07:39;;;;;;;13.57;10.00;;;;;;;;;;5098307;28;20715;-65
2021/07/15 03:10:07;;;;;;;12.40;8.93;;;;;;;;;;5098199;28;20219;-65
2021/07/15 03:12:37;;;;;;;13.23;9.33;;;;;;;;;;5098062;28;20769;-65
2021/07/15 03:15:05;;;;;;;15.83;9.87;;;;;;;;;;5098573;28;20216;-65
2021/07/15 03:17:35;;;;;;;12.23;9.13;;;;;;;;;;5098587;28;20568;-66
2021/07/15 03:20:07;;;;;;;13.20;9.03;;;;;;;;;;5098169;28;20248;-66
2021/07/15 03:22:36;;;;;;;8.80;7.27;;;;;;;;;;5097600;28;20217;-65
2021/07/15 03:25:06;;;;;;;9.50;7.53;;;;;;;;;;5097576;28;20225;-65
2021/07/15 03:27:36;;;;;;;11.33;7.93;;;;;;;;;;5103253;28;20280;-66
2021/07/15 03:30:06;;;;;;;9.43;6.80;;;;;;;;;;5118044;28;20670;-66
2021/07/15 03:32:35;;;;;;;8.17;7.10;;;;;;;;;;5118669;28;20239;-66
2021/07/15 03:35:03;;;;;;;11.43;7.37;;;;;;;;;;5118281;28;20593;-66
2021/07/15 03:37:32;;;;;;;10.03;6.60;;;;;;;;;;5118375;28;20233;-65
2021/07/15 03:40:00;;;;;;;8.97;7.13;;;;;;;;;;5103032;28;20204;-66
2021/07/15 03:42:30;;;;;;;11.20;7.73;;;;;;;;;;5124076;28;20227;-66
2021/07/15 03:44:59;;;;;;;9.40;7.43;;;;;;;;;;5118954;28;20211;-66
2021/07/15 03:47:27;;;;;;;12.07;7.23;;;;;;;;;;5118315;28;20219;-65
2021/07/15 03:49:56;;;;;;;8.63;6.60;;;;;;;;;;5117688;28;20610;-66
2021/07/15 03:52:25;;;;;;;9.83;7.03;;;;;;;;;;5118204;28;20221;-65
2021/07/15 03:54:54;;;;;;;7.87;6.73;;;;;;;;;;5113941;28;20221;-65
2021/07/15 03:57:25;;;;;;;9.97;6.90;;;;;;;;;;5090462;28;20205;-66
2021/07/15 03:59:55;;;;;;;10.47;8.13;;;;;;;;;;5097585;28;20201;-65
2021/07/15 04:02:24;;;;;;;7.47;6.77;;;;;;;;;;5097468;28;20676;-66
2021/07/15 04:04:54;;;;;;;9.23;6.77;;;;;;;;;;5097398;28;20208;-65
2021/07/15 04:07:25;;;;;;;8.53;6.93;;;;;;;;;;5097456;28;20288;-65
2021/07/15 04:09:53;;;;;;;7.83;6.37;;;;;;;;;;5096806;28;20593;-65
2021/07/15 04:12:22;;;;;;;6.07;5.43;;;;;;;;;;5096645;28;20222;-65
2021/07/15 04:15:04;;;;;;;7.47;5.37;;;;;;;;;;5096796;28;20229;-65
2021/07/15 04:17:34;;;;;;;9.17;5.90;;;;;;;;;;5097130;28;20572;-65
2021/07/15 04:20:04;;;;;;;9.37;5.70;;;;;;;;;;5097284;28;20208;-65
2021/07/15 04:22:32;;;;;;;7.00;5.27;;;;;;;;;;5097162;28;20222;-65
2021/07/15 04:25:01;;;;;;;6.57;5.97;;;;;;;;;;5097204;28;20687;-65
2021/07/15 04:27:29;;;;;;;7.47;6.20;;;;;;;;;;5097616;28;20269;-65
2021/07/15 04:30:01;;;;;;;6.30;5.70;;;;;;;;;;5097397;28;20209;-65
2021/07/15 04:32:30;;;;;;;8.13;6.90;;;;;;;;;;5097323;28;20230;-65
2021/07/15 04:34:59;;;;;;;8.37;5.80;;;;;;;;;;5097228;28;20225;-65
2021/07/15 04:37:27;;;;;;;7.80;5.50;;;;;;;;;;5097276;28;20317;-65
2021/07/15 04:39:56;;;;;;;7.10;5.33;;;;;;;;;;5097411;28;20206;-65
2021/07/15 04:42:24;;;;;;;5.70;5.20;;;;;;;;;;5097404;28;20285;-65
2021/07/15 04:44:53;;;;;;;5.60;4.97;;;;;;;;;;5096646;28;20233;-65
2021/07/15 04:47:23;;;;;;;5.37;4.80;;;;;;;;;;5097257;28;20657;-65
2021/07/15 04:49:51;;;;;;;7.17;5.00;;;;;;;;;;5097292;28;20284;-65
2021/07/15 04:52:19;;;;;;;9.37;4.90;;;;;;;;;;5097274;28;20226;-65
2021/07/15 04:54:48;;;;;;;6.13;5.50;;;;;;;;;;5096895;28;20221;-65
2021/07/15 04:57:16;;;;;;;6.30;5.30;;;;;;;;;;5097240;28;20296;-65
2021/07/15 04:59:45;;;;;;;5.97;5.17;;;;;;;;;;5096985;28;20281;-65
2021/07/15 05:02:13;;;;;;;6.20;4.97;;;;;;;;;;5098832;28;20716;-65
2021/07/15 05:04:42;;;;;;;5.43;4.77;;;;;;;;;;5100624;28;20205;-65
2021/07/15 05:07:10;;;;;;;6.03;4.57;;;;;;;;;;5100345;28;20296;-65
2021/07/15 05:09:38;;;;;;;6.23;4.60;;;;;;;;;;5099896;28;20554;-65
2021/07/15 05:12:08;;;;;;;4.57;4.17;;;;;;;;;;5099615;28;20218;-65
2021/07/15 05:14:41;;;;;;;5.30;4.80;;;;;;;;;;5099435;28;20229;-65
2021/07/15 05:17:09;;;;;;;5.70;4.90;;;;;;;;;;5100320;28;20292;-65
2021/07/15 05:19:37;;;;;;;6.30;4.43;;;;;;;;;;5100264;28;20202;-65
2021/07/15 05:22:07;;;;;;;4.83;4.10;;;;;;;;;;5100035;28;20285;-65
2021/07/15 05:24:35;;;;;;;5.00;4.50;;;;;;;;;;5100596;28;20291;-65
2021/07/15 05:27:03;;;;;;;4.87;4.47;;;;;;;;;;5100280;28;20205;-65
2021/07/15 05:29:31;;;;;;;6.23;4.43;;;;;;;;;;5099630;28;20206;-66
2021/07/15 05:31:59;;;;;;;4.70;4.07;;;;;;;;;;5100204;28;20232;-65
2021/07/15 05:34:27;;;;;;;8.00;4.50;;;;;;;;;;5100144;28;20228;-65
2021/07/15 05:36:55;;;;;;;5.20;4.70;;;;;;;;;;5099934;28;20229;-65
2021/07/15 05:39:24;;;;;;;5.23;4.53;;;;;;;;;;5099889;28;20579;-66
2021/07/15 05:41:52;;;;;;;4.73;4.33;;;;;;;;;;5100066;28;20232;-66
2021/07/15 05:44:21;;;;;;;5.90;4.70;;;;;;;;;;5099911;28;20209;-65
2021/07/15 05:46:49;;;;;;;5.33;4.20;;;;;;;;;;5099683;28;20273;-65
2021/07/15 05:49:33;;;;;;;8.13;4.50;;;;;;;;;;5099997;28;20263;-65
2021/07/15 05:52:01;;;;;;;6.60;5.00;;;;;;;;;;5099625;28;20630;-65
2021/07/15 05:54:31;;;;;;;7.67;4.30;;;;;;;;;;5099442;28;20595;-66
2021/07/15 05:56:59;;;;;;;5.27;4.50;;;;;;;;;;5099996;28;20217;-65
2021/07/15 05:59:27;;;;;;;6.20;4.07;;;;;;;;;;5099690;28;20203;-65
2021/07/15 06:01:55;;;;;;;4.97;4.57;;;;;;;;;;5099717;28;20226;-65
2021/07/15 06:04:24;;;;;;;5.47;4.97;;;;;;;;;;5099277;28;20310;-66
2021/07/15 06:06:52;;;;;;;4.97;4.27;;;;;;;;;;5099079;28;20285;-65
2021/07/15 06:09:20;;;;;;;5.43;4.67;;;;;;;;;;5098941;28;20205;-65
2021/07/15 06:11:49;;;;;;;6.23;4.17;;;;;;;;;;5098423;28;20253;-65
2021/07/15 06:14:19;;;;;;;4.53;4.13;;;;;;;;;;5098717;28;20293;-65
2021/07/15 06:16:46;;;;;;;5.93;4.03;;;;;;;;;;5098898;28;20215;-65
2021/07/15 06:19:15;;;;;;;5.50;4.50;;;;;;;;;;5098747;28;20616;-65
2021/07/15 06:21:42;;;;;;;5.70;4.40;;;;;;;;;;5099356;28;20316;-65
2021/07/15 06:24:11;;;;;;;3.97;3.57;;;;;;;;;;5098903;28;20213;-65
2021/07/15 06:26:39;;;;;;;4.00;3.60;;;;;;;;;;5098646;28;20291;-63
2021/07/15 06:29:09;;;;;;;5.80;4.53;;;;;;;;;;5098819;28;20232;-65
2021/07/15 06:31:37;;;;;;;4.07;3.77;;;;;;;;;;5105710;28;20243;-64
2021/07/15 06:34:06;;;;;;;4.57;4.10;;;;;;;;;;5118119;28;20212;-65
2021/07/15 06:36:34;;;;;;;4.50;4.10;;;;;;;;;;5117720;28;20229;-65
2021/07/15 06:39:02;;;;;;;6.20;4.20;;;;;;;;;;5118863;28;20207;-65
2021/07/15 06:41:30;;;;;;;7.10;4.27;;;;;;;;;;5118119;28;20771;-65
2021/07/15 06:43:58;;;;;;;4.50;4.10;;;;;;;;;;5118892;28;20209;-65
2021/07/15 06:46:27;;;;;;;4.37;3.97;;;;;;;;;;5118570;28;20204;-65
2021/07/15 06:48:56;;;;;;;6.23;3.90;;;;;;;;;;5118909;28;20652;-65
2021/07/15 06:51:24;;;;;;;4.93;4.50;;;;;;;;;;5118719;28;20588;-65
2021/07/15 06:53:52;;;;;;;4.70;3.70;;;;;;;;;;5118714;28;20273;-65
2021/07/15 06:56:20;;;;;;;3.87;3.53;;;;;;;;;;5118639;28;20284;-65
2021/07/15 06:58:48;;;;;;;5.60;3.83;;;;;;;;;;5119198;28;20280;-65
2021/07/15 07:01:16;;;;;;;4.33;3.93;;;;;;;;;;5099631;28;20749;-65
2021/07/15 07:03:45;;;;;;;4.70;3.43;;;;;;;;;;5098733;28;20205;-66
2021/07/15 07:06:13;;;;;;;5.87;3.77;;;;;;;;;;5098397;28;20229;-66
2021/07/15 07:08:41;;;;;;;3.80;3.50;;;;;;;;;;5098324;28;20216;-65
2021/07/15 07:11:09;;;;;;;9.13;3.63;;;;;;;;;;5097618;28;20205;-66
2021/07/15 07:13:37;;;;;;;4.30;3.90;;;;;;;;;;5098221;28;20251;-63
2021/07/15 07:16:06;;;;;;;3.63;3.33;;;;;;;;;;5097845;28;20257;-65
2021/07/15 07:18:33;;;;;;;4.63;3.10;;;;;;;;;;5098060;28;20214;-66
2021/07/15 07:21:03;;;;;;;4.60;3.33;;;;;;;;;;5097483;28;20248;-66
2021/07/15 07:23:31;;;;;;;5.40;3.30;;;;;;;;;;5097661;28;20211;-66
2021/07/15 07:25:59;;;;;;;7.23;4.23;;;;;;;;;;5097341;28;20265;-66
2021/07/15 07:28:27;;;;;;;6.77;3.77;;;;;;;;;;5097725;28;20216;-66
2021/07/15 07:30:55;;;;;;;4.27;3.70;;;;;;;;;;5097415;28;20286;-65
2021/07/15 07:33:23;;;;;;;6.80;3.43;;;;;;;;;;5097616;28;20232;-65
2021/07/15 07:35:52;;;;;;;4.97;3.70;;;;;;;;;;5103241;28;20236;-66
2021/07/15 07:38:21;;;;;;;3.67;3.23;;;;;;;;;;5099684;28;20248;-66
2021/07/15 07:40:49;;;;;;;5.03;3.83;;;;;;;;;;5098273;28;20205;-65
2021/07/15 07:43:17;;;;;;;4.90;3.87;;;;;;;;;;5097553;28;20221;-65
2021/07/15 07:45:45;;;;;;;5.20;4.00;;;;;;;;;;5096534;28;20331;-65
2021/07/15 07:48:13;;;;;;;3.37;3.07;;;;;;;;;;5095028;28;20205;-65
2021/07/15 07:50:41;;;;;;;5.30;3.43;;;;;;;;;;5096947;28;20201;-65
2021/07/15 07:53:09;;;;;;;6.13;3.53;;;;;;;;;;5098783;28;20248;-65
2021/07/15 07:55:43;;;;;;;3.60;3.23;;;;;;;;;;5096449;28;20246;-66
2021/07/15 07:58:12;;;;;;;3.93;3.33;;;;;;;;;;5091539;28;20206;-66
2021/07/15 08:00:40;;;;;;;3.70;3.40;;;;;;;;;;5082359;28;20201;-66
2021/07/15 08:03:09;;;;;;;4.60;3.47;;;;;;;;;;5091493;28;20257;-66
2021/07/15 08:05:40;;;;;;;3.93;3.33;;;;;;;;;;5090733;28;20204;-66
2021/07/15 08:08:09;;;;;;;5.87;3.57;;;;;;;;;;5096857;28;20280;-66
2021/07/15 08:10:37;;;;;;;5.90;3.80;;;;;;;;;;5096918;28;20326;-66
2021/07/15 08:13:07;;;;;;;4.50;3.23;;;;;;;;;;5096901;28;20616;-66
2021/07/15 08:15:35;;;;;;;8.50;3.50;;;;;;;;;;5089789;28;20229;-66
2021/07/15 08:18:04;;;;;;;4.77;3.30;;;;;;;;;;5095797;28;20201;-66
2021/07/15 08:20:32;;;;;;;5.07;3.03;;;;;;;;;;5096535;28;20220;-65
2021/07/15 08:23:00;;;;;;;7.67;3.40;;;;;;;;;;5096252;28;20218;-65
2021/07/15 08:25:28;;;;;;;3.07;2.80;;;;;;;;;;5103903;28;20209;-66
2021/07/15 08:27:56;;;;;;;4.17;3.60;;;;;;;;;;5097910;28;20280;-66
2021/07/15 08:30:25;;;;;;;3.47;3.17;;;;;;;;;;5098036;28;20258;-65
2021/07/15 08:32:53;;;;;;;3.50;3.20;;;;;;;;;;5096029;28;20230;-66
2021/07/15 08:35:25;;;;;;;7.80;3.60;;;;;;;;;;5095934;28;20201;-66
2021/07/15 08:37:53;;;;;;;8.30;3.47;;;;;;;;;;5101414;28;20238;-65
2021/07/15 08:40:21;;;;;;;3.60;3.17;;;;;;;;;;5092338;28;20237;-66
2021/07/15 08:42:49;;;;;;;4.47;3.70;;;;;;;;;;5103507;28;20247;-67
2021/07/15 08:45:17;;;;;;;3.80;3.20;;;;;;;;;;5100316;28;20292;-67
2021/07/15 08:47:47;;;;;;;3.20;3.00;;;;;;;;;;5100917;28;20270;-66
2021/07/15 08:50:16;;;;;;;3.47;3.10;;;;;;;;;;5100382;28;20202;-67
2021/07/15 08:52:45;;;;;;;5.10;3.37;;;;;;;;;;5100077;28;20312;-66
2021/07/15 08:56:36;;;;;;;4.90;3.20;;;;;;;;;;5100996;28;20198;-64
2021/07/15 08:58:08;;;;;;;5.03;3.40;;;;;;;;;;5098611;28;20262;-64
2021/07/15 09:00:36;;;;;;;5.00;3.27;;;;;;;;;;5099457;28;20236;-67
2021/07/15 09:03:06;;;;;;;4.00;3.10;;;;;;;;;;5099865;28;20213;-65
2021/07/15 09:05:34;;;;;;;3.93;3.60;;;;;;;;;;5099948;28;20200;-64
2021/07/15 09:08:03;;;;;;;5.00;3.20;;;;;;;;;;5100466;28;20194;-65
2021/07/15 09:10:31;;;;;;;5.00;2.97;;;;;;;;;;5099661;28;20204;-65
2021/07/15 09:12:59;;;;;;;3.83;3.27;;;;;;;;;;5099389;28;20225;-67
2021/07/15 09:15:27;;;;;;;4.30;3.27;;;;;;;;;;5096113;28;20315;-67
2021/07/15 09:17:56;;;;;;;3.50;3.20;;;;;;;;;;5101037;28;20233;-66
2021/07/15 09:20:26;;;;;;;5.00;3.67;;;;;;;;;;5100131;28;20202;-65
2021/07/15 09:22:57;;;;;;;4.40;3.67;;;;;;;;;;5098826;28;20596;-65
2021/07/15 09:25:25;;;;;;;4.67;3.73;;;;;;;;;;5100339;28;20219;-67
2021/07/15 09:27:53;;;;;;;7.53;3.93;;;;;;;;;;5104015;28;20197;-66
2021/07/15 09:30:21;;;;;;;5.70;3.50;;;;;;;;;;5099180;28;20223;-68
2021/07/15 09:32:54;;;;;;;5.60;3.10;;;;;;;;;;5099150;28;20563;-65
2021/07/15 09:35:28;;;;;;;3.53;3.23;;;;;;;;;;5099966;28;20206;-67
2021/07/15 09:37:56;;;;;;;4.87;3.60;;;;;;;;;;5098597;28;20229;-67
2021/07/15 09:40:37;;;;;;;3.87;3.40;;;;;;;;;;5098345;28;20206;-66
2021/07/15 09:43:12;;;;;;;3.47;2.90;;;;;;;;;;5099238;28;20232;-66
2021/07/15 09:45:40;;;;;;;3.93;3.00;;;;;;;;;;5101217;28;20666;-66
2021/07/15 09:48:15;;;;;;;4.67;3.67;;;;;;;;;;5098673;28;20558;-66
2021/07/15 09:50:48;;;;;;;5.47;3.63;;;;;;;;;;5098461;28;20204;-66
2021/07/15 09:53:18;;;;;;;5.80;3.33;;;;;;;;;;5099243;28;20285;-65
2021/07/15 09:55:47;;;;;;;3.67;3.37;;;;;;;;;;5095947;28;20336;-66
2021/07/15 09:58:15;;;;;;;6.57;4.00;;;;;;;;;;5098954;28;20316;-65
2021/07/15 10:00:44;;;;;;;4.60;3.20;;;;;;;;;;5098812;28;20261;-65
2021/07/15 10:03:13;;;;;;;6.53;3.90;;;;;;;;;;5098186;28;20218;-65
2021/07/15 10:05:50;;;;;;;5.90;3.73;;;;;;;;;;5098098;28;20240;-65
2021/07/15 10:08:26;;;;;;;4.07;3.73;;;;;;;;;;5098874;28;20199;-67
2021/07/15 10:10:55;;;;;;;5.00;3.80;;;;;;;;;;5100843;28;20298;-66
2021/07/15 10:13:23;;;;;;;5.00;3.40;;;;;;;;;;5101026;28;20688;-68
2021/07/15 10:15:52;;;;;;;8.43;3.80;;;;;;;;;;5097470;28;20277;-65
2021/07/15 10:18:37;;;;;;;7.03;4.10;;;;;;;;;;5097386;28;20279;-65
2021/07/15 10:21:08;;;;;;;5.17;3.73;;;;;;;;;;5095486;28;20200;-66
2021/07/15 10:23:37;;;;;;;3.73;3.40;;;;;;;;;;5098896;28;20196;-68
2021/07/15 10:26:25;;;;;;;7.37;3.73;;;;;;;;;;5099294;28;20789;-65
2021/07/15 10:28:53;;;;;;;7.20;3.53;;;;;;;;;;5098005;28;20631;-66
2021/07/15 10:31:22;;;;;;;3.97;3.30;;;;;;;;;;5096680;28;20768;-67
2021/07/15 10:33:50;;;;;;;5.20;3.73;;;;;;;;;;5097233;28;20289;-68
2021/07/15 10:36:21;;;;;;;5.20;3.57;;;;;;;;;;5098111;28;20209;-68
2021/07/15 10:38:51;;;;;;;4.20;3.70;;;;;;;;;;5098858;28;20226;-68
2021/07/15 10:41:21;;;;;;;7.10;3.87;;;;;;;;;;5097578;28;20328;-67
2021/07/15 10:43:49;;;;;;;160.13;107.47;;;;;;;;;;5099348;28;20209;-66
2021/07/15 10:46:18;;;;;;;14.90;11.60;;;;;;;;;;5100219;28;20216;-66
2021/07/15 10:48:47;;;;;;;4.77;3.97;;;;;;;;;;5096280;28;20190;-67
2021/07/15 10:51:16;;;;;;;4.57;3.73;;;;;;;;;;5097002;28;20210;-67
2021/07/15 10:53:45;;;;;;;7.03;3.80;;;;;;;;;;5097837;28;20209;-67
2021/07/15 10:56:16;;;;;;;4.10;3.80;;;;;;;;;;5098639;28;20215;-66
2021/07/15 10:58:45;;;;;;;5.33;4.20;;;;;;;;;;5096834;28;20220;-67
2021/07/15 11:01:35;;;;;;;6.63;4.07;;;;;;;;;;5098781;28;20638;-66
2021/07/15 11:04:08;;;;;;;4.30;3.77;;;;;;;;;;5091862;28;20198;-67
2021/07/15 11:06:40;;;;;;;4.87;4.07;;;;;;;;;;5096876;28;20694;-64
2021/07/15 11:09:11;;;;;;;7.97;4.43;;;;;;;;;;5091955;28;20228;-66
2021/07/15 11:11:40;;;;;;;4.03;3.73;;;;;;;;;;5098530;28;20289;-66
2021/07/15 11:14:28;;;;;;;4.53;3.97;;;;;;;;;;5094512;28;20280;-66
2021/07/15 11:16:56;;;;;;;5.50;4.00;;;;;;;;;;5096233;28;20205;-65
2021/07/15 11:19:43;;;;;;;4.00;3.70;;;;;;;;;;5096329;28;20201;-65
2021/07/15 11:22:11;;;;;;;5.30;3.97;;;;;;;;;;5115372;28;20664;-66
2021/07/15 11:24:43;;;;;;;6.83;5.70;;;;;;;;;;5096604;28;20288;-64
2021/07/15 11:27:26;;;;;;;5.60;5.03;;;;;;;;;;5099477;28;20220;-64
2021/07/15 11:29:54;;;;;;;5.97;4.20;;;;;;;;;;5081613;28;20292;-65
2021/07/15 11:32:26;;;;;;;6.57;3.97;;;;;;;;;;5098295;28;20227;-65
2021/07/15 11:34:55;;;;;;;5.00;4.50;;;;;;;;;;5096926;28;20202;-65
2021/07/15 11:37:36;;;;;;;4.70;4.20;;;;;;;;;;5096513;28;20706;-66
2021/07/15 11:40:06;;;;;;;5.17;4.20;;;;;;;;;;5096614;28;20200;-67
2021/07/15 11:42:44;;;;;;;5.00;4.27;;;;;;;;;;5104272;28;20312;-65
2021/07/15 11:45:12;;;;;;;4.60;3.93;;;;;;;;;;5095749;28;20217;-65
2021/07/15 11:47:46;;;;;;;6.47;4.10;;;;;;;;;;5100125;28;20277;-67
2021/07/15 11:50:33;;;;;;;3.93;3.63;;;;;;;;;;5102665;28;20209;-67
2021/07/15 11:53:19;;;;;;;5.73;4.00;;;;;;;;;;5099823;28;20635;-66
2021/07/15 11:55:49;;;;;;;4.33;3.93;;;;;;;;;;5097298;28;20248;-66
2021/07/15 11:58:35;;;;;;;6.83;4.50;;;;;;;;;;5096729;28;20267;-67
2021/07/15 12:01:16;;;;;;;4.87;3.70;;;;;;;;;;5093993;28;20247;-67
2021/07/15 12:03:59;;;;;;;4.30;3.90;;;;;;;;;;5097492;28;20335;-67
2021/07/15 12:06:27;;;;;;;4.20;3.80;;;;;;;;;;5094396;28;20217;-67
2021/07/15 12:09:01;;;;;;;6.07;4.53;;;;;;;;;;5098704;28;20197;-67
2021/07/15 12:11:30;;;;;;;4.63;4.10;;;;;;;;;;5099459;28;20234;-67
2021/07/15 12:14:00;;;;;;;7.27;4.47;;;;;;;;;;5103134;28;20231;-67
2021/07/15 12:16:29;;;;;;;7.03;4.10;;;;;;;;;;5100422;28;20213;-66
2021/07/15 12:19:01;;;;;;;6.13;4.40;;;;;;;;;;5100668;28;20221;-66
2021/07/15 12:21:30;;;;;;;5.90;4.27;;;;;;;;;;5097974;28;20221;-66
2021/07/15 12:23:59;;;;;;;5.47;4.23;;;;;;;;;;5101063;28;20210;-65
2021/07/15 12:26:26;;;;;;;5.87;4.20;;;;;;;;;;5100536;28;20213;-65
2021/07/15 12:28:59;;;;;;;4.47;4.10;;;;;;;;;;5103164;28;20205;-66
2021/07/15 12:31:27;;;;;;;9.40;4.37;;;;;;;;;;5100048;28;20580;-66
2021/07/15 12:33:55;;;;;;;6.00;4.47;;;;;;;;;;5102234;28;20219;-66
2021/07/15 12:36:24;;;;;;;7.13;4.73;;;;;;;;;;5102569;28;20566;-66
2021/07/15 12:38:52;;;;;;;5.53;4.33;;;;;;;;;;5100443;28;20229;-68
2021/07/15 12:41:22;;;;;;;6.93;5.03;;;;;;;;;;5104995;28;20217;-69
2021/07/15 12:43:51;;;;;;;9.07;5.17;;;;;;;;;;5100674;28;20210;-67
2021/07/15 12:46:21;;;;;;;5.77;5.17;;;;;;;;;;5101585;28;20197;-65
2021/07/15 12:48:50;;;;;;;6.03;4.60;;;;;;;;;;5100295;28;20261;-67
2021/07/15 12:51:19;;;;;;;7.17;4.73;;;;;;;;;;5100319;28;20300;-67
2021/07/15 12:53:49;;;;;;;5.17;4.63;;;;;;;;;;5099514;28;20209;-68
2021/07/15 12:56:21;;;;;;;7.13;4.87;;;;;;;;;;5100815;28;20288;-66
2021/07/15 12:59:02;;;;;;;5.20;4.70;;;;;;;;;;5108061;28;20593;-68
2021/07/15 13:01:36;;;;;;;5.80;4.33;;;;;;;;;;5102303;28;20293;-66
2021/07/15 13:04:06;;;;;;;5.80;4.20;;;;;;;;;;5107796;28;20205;-66
2021/07/15 13:06:35;;;;;;;5.03;4.57;;;;;;;;;;5099566;28;20568;-67
2021/07/15 13:09:12;;;;;;;5.10;4.40;;;;;;;;;;5101599;28;20197;-68
2021/07/15 13:14:28;;;;;;;5.30;4.77;;;;;;;;;;5093035;28;20672;-68
2021/07/15 13:16:57;;;;;;;6.07;4.63;;;;;;;;;;5102674;28;20269;-67
2021/07/15 13:19:27;;;;;;;5.10;4.07;;;;;;;;;;5099713;28;20225;-67
2021/07/15 13:21:55;;;;;;;5.03;4.53;;;;;;;;;;5098494;28;20331;-67
2021/07/15 13:24:27;;;;;;;5.73;4.57;;;;;;;;;;5096648;28;20201;-67
2021/07/15 13:26:56;;;;;;;4.50;4.10;;;;;;;;;;5101476;28;20675;-67
2021/07/15 13:29:30;;;;;;;5.90;4.37;;;;;;;;;;5099515;28;21001;-67
2021/07/15 13:32:08;;;;;;;4.77;4.37;;;;;;;;;;5102716;28;20230;-67
2021/07/15 13:34:38;;;;;;;7.27;4.40;;;;;;;;;;5099789;28;20210;-66
2021/07/15 13:37:06;;;;;;;6.13;4.87;;;;;;;;;;5098656;28;20234;-66
2021/07/15 13:39:44;;;;;;;5.20;4.53;;;;;;;;;;5098576;28;20225;-66
2021/07/15 13:42:14;;;;;;;6.40;4.83;;;;;;;;;;5097803;28;20625;-67
2021/07/15 13:44:49;;;;;;;7.00;4.67;;;;;;;;;;5101054;28;20197;-66
2021/07/15 13:47:23;;;;;;;6.27;4.83;;;;;;;;;;5097098;28;20206;-67
2021/07/15 13:49:59;;;;;;;5.37;4.87;;;;;;;;;;5095961;28;20277;-67
2021/07/15 13:52:28;;;;;;;5.10;4.43;;;;;;;;;;5099843;28;20220;-67
2021/07/15 13:54:56;;;;;;;7.47;4.77;;;;;;;;;;5100007;28;20289;-67
2021/07/15 13:57:25;;;;;;;6.60;4.53;;;;;;;;;;5099583;28;20240;-67
2021/07/15 13:59:54;;;;;;;7.40;4.77;;;;;;;;;;5100459;28;20367;-67
2021/07/15 14:02:23;;;;;;;7.90;4.83;;;;;;;;;;5109244;28;20225;-67
2021/07/15 14:04:52;;;;;;;5.70;5.03;;;;;;;;;;5117575;28;20235;-67
2021/07/15 14:07:20;;;;;;;6.57;4.33;;;;;;;;;;5100699;28;20251;-67
2021/07/15 14:09:48;;;;;;;7.43;4.93;;;;;;;;;;5099225;28;20205;-66
2021/07/15 14:12:16;;;;;;;5.83;4.93;;;;;;;;;;5098847;28;20228;-72
2021/07/15 14:14:48;;;;;;;5.60;4.90;;;;;;;;;;5098353;28;20217;-74
2021/07/15 14:17:24;;;;;;;6.13;5.03;;;;;;;;;;5098466;28;20669;-75
2021/07/15 14:19:53;;;;;;;8.67;7.60;;;;;;;;;;5098718;28;20236;-72
2021/07/15 14:22:22;;;;;;;7.00;5.67;;;;;;;;;;5098653;28;20308;-65
2021/07/15 14:24:50;;;;;;;6.40;5.17;;;;;;;;;;5107021;28;20204;-68
2021/07/15 14:27:19;;;;;;;6.17;5.27;;;;;;;;;;5098339;28;20617;-68
2021/07/15 14:29:48;;;;;;;7.97;5.60;;;;;;;;;;5097724;28;20190;-68
2021/07/15 14:32:17;;;;;;;7.17;6.03;;;;;;;;;;5099571;28;20719;-69
2021/07/15 14:34:47;;;;;;;7.43;5.93;;;;;;;;;;5096415;28;20233;-66
2021/07/15 14:37:15;;;;;;;7.20;6.20;;;;;;;;;;5100296;28;20236;-67
2021/07/15 14:39:43;;;;;;;8.20;5.67;;;;;;;;;;5098290;28;20744;-68
2021/07/15 14:42:11;;;;;;;9.60;5.57;;;;;;;;;;5098876;28;20231;-69
2021/07/15 14:44:39;;;;;;;5.80;5.20;;;;;;;;;;5109065;28;20226;-70
2021/07/15 14:47:08;;;;;;;5.77;5.20;;;;;;;;;;5104496;28;20204;-70
2021/07/15 14:49:36;;;;;;;6.70;5.17;;;;;;;;;;5108960;28;20193;-70
2021/07/15 14:52:06;;;;;;;9.33;5.43;;;;;;;;;;5097472;28;20295;-70
2021/07/15 14:54:34;;;;;;;6.83;5.60;;;;;;;;;;5097750;28;20672;-70
2021/07/15 14:57:02;;;;;;;7.10;5.93;;;;;;;;;;5098367;28;20204;-70
2021/07/15 14:59:30;;;;;;;9.57;6.33;;;;;;;;;;5097828;28;20217;-70
2021/07/15 15:01:58;;;;;;;6.53;5.77;;;;;;;;;;5098095;28;20313;-70